createdAt,value
2022-10-08T00:00:12.357Z,57.16
2022-10-08T00:03:01.687Z,57.30
2022-10-08T00:05:31.098Z,57.22
2022-10-08T00:08:01.658Z,57.31
2022-10-08T00:10:31.425Z,57.43
2022-10-08T00:13:05.024Z,57.47
2022-10-08T00:15:39.903Z,57.42
2022-10-08T00:18:08.603Z,57.49
2022-10-08T00:20:37.390Z,57.71
2022-10-08T00:23:07.807Z,57.70
2022-10-08T00:25:44.793Z,57.77
2022-10-08T00:28:14.185Z,58.02
2022-10-08T00:30:46.251Z,57.97
2022-10-08T00:33:15.073Z,58.14
2022-10-08T00:35:47.722Z,58.15
2022-10-08T00:38:16.297Z,58.10
2022-10-08T00:40:48.271Z,58.24
2022-10-08T00:43:17.766Z,58.35
2022-10-08T00:45:50.470Z,58.40
2022-10-08T00:48:26.329Z,58.52
2022-10-08T00:50:55.382Z,58.43
2022-10-08T00:53:25.539Z,58.55
2022-10-08T00:55:56.730Z,58.70
2022-10-08T00:58:27.922Z,58.78
2022-10-08T01:00:58.799Z,58.78
2022-10-08T01:03:28.910Z,58.94
2022-10-08T01:06:27.124Z,58.99
2022-10-08T01:09:34.510Z,58.99
2022-10-08T01:12:26.904Z,59.05
2022-10-08T01:15:26.059Z,59.11
2022-10-08T01:18:17.730Z,59.20
2022-10-08T01:20:56.547Z,59.25
2022-10-08T01:23:40.718Z,59.32
2022-10-08T01:26:42.852Z,59.28
2022-10-08T01:29:39.724Z,59.44
2022-10-08T01:32:20.084Z,59.46
2022-10-08T01:35:01.662Z,59.57
2022-10-08T01:37:40.271Z,59.61
2022-10-08T01:40:17.189Z,59.83
2022-10-08T01:42:48.959Z,59.81
2022-10-08T01:45:25.334Z,59.91
2022-10-08T01:47:58.661Z,59.86
2022-10-08T01:50:52.662Z,60.02
2022-10-08T01:53:27.404Z,60.03
2022-10-08T01:56:00.411Z,60.14
2022-10-08T01:58:41.755Z,60.31
2022-10-08T02:01:20.077Z,60.35
2022-10-08T02:04:07.757Z,60.30
2022-10-08T02:06:42.107Z,60.53
2022-10-08T02:09:12.681Z,60.36
2022-10-08T02:11:42.061Z,60.51
2022-10-08T02:14:13.238Z,60.63
2022-10-08T02:16:51.097Z,60.60
2022-10-08T02:19:42.719Z,60.81
2022-10-08T02:22:16.834Z,60.83
2022-10-08T02:24:56.596Z,60.96
2022-10-08T02:27:33.741Z,61.11
2022-10-08T02:30:11.254Z,61.01
2022-10-08T02:33:10.661Z,61.01
2022-10-08T02:35:54.498Z,61.18
2022-10-08T02:38:56.751Z,61.30
2022-10-08T02:41:39.226Z,61.25
2022-10-08T02:44:17.495Z,61.39
2022-10-08T02:46:49.642Z,61.42
2022-10-08T02:49:26.031Z,61.46
2022-10-08T02:51:59.207Z,61.57
2022-10-08T02:54:36.162Z,61.76
2022-10-08T02:57:08.611Z,61.59
2022-10-08T02:59:40.862Z,61.69
2022-10-08T03:02:12.960Z,61.82
2022-10-08T03:04:57.011Z,61.78
2022-10-08T03:07:32.502Z,62.02
2022-10-08T03:10:08.272Z,61.95
2022-10-08T03:12:37.147Z,62.02
2022-10-08T03:15:12.026Z,62.11
2022-10-08T03:17:45.306Z,62.18
2022-10-08T03:20:18.209Z,62.21
2022-10-08T03:22:47.790Z,62.22
2022-10-08T03:25:18.706Z,62.31
2022-10-08T03:27:50.262Z,62.45
2022-10-08T03:30:20.517Z,62.46
2022-10-08T03:32:50.466Z,62.61
2022-10-08T03:35:19.697Z,62.54
2022-10-08T03:37:51.677Z,62.65
2022-10-08T03:40:22.230Z,62.84
2022-10-08T03:42:53.200Z,62.87
2022-10-08T03:45:24.880Z,62.83
2022-10-08T03:47:53.581Z,62.88
2022-10-08T03:50:24.127Z,62.80
2022-10-08T03:52:53.098Z,62.89
2022-10-08T03:55:22.939Z,62.94
2022-10-08T03:57:53.293Z,63.04
2022-10-08T04:00:22.703Z,63.14
2022-10-08T04:02:57.426Z,63.23
2022-10-08T04:05:27.873Z,63.24
2022-10-08T04:08:02.240Z,63.25
2022-10-08T04:10:41.937Z,63.30
2022-10-08T04:13:10.842Z,63.33
2022-10-08T04:15:41.091Z,63.47
2022-10-08T04:18:13.372Z,63.46
2022-10-08T04:20:44.426Z,63.56
2022-10-08T04:23:39.627Z,63.61
2022-10-08T04:26:09.087Z,63.58
2022-10-08T04:28:41.155Z,63.78
2022-10-08T04:31:19.267Z,63.75
2022-10-08T04:33:48.609Z,63.75
2022-10-08T04:36:22.839Z,63.79
2022-10-08T04:38:52.435Z,63.90
2022-10-08T04:41:27.614Z,64.04
2022-10-08T04:44:01.510Z,64.00
2022-10-08T04:46:30.982Z,63.99
2022-10-08T04:49:00.841Z,64.06
2022-10-08T04:51:34.116Z,64.21
2022-10-08T04:54:04.614Z,64.23
2022-10-08T04:56:35.274Z,64.19
2022-10-08T04:59:06.845Z,64.33
2022-10-08T05:01:35.642Z,64.23
2022-10-08T05:04:07.916Z,64.22
2022-10-08T05:06:36.621Z,64.48
2022-10-08T05:09:08.892Z,64.43
2022-10-08T05:11:39.156Z,64.38
2022-10-08T05:14:10.628Z,64.40
2022-10-08T05:16:39.427Z,64.41
2022-10-08T05:19:10.892Z,64.38
2022-10-08T05:21:41.739Z,64.37
2022-10-08T05:24:17.246Z,64.48
2022-10-08T05:27:04.469Z,64.60
2022-10-08T05:29:33.955Z,64.60
2022-10-08T05:32:12.503Z,64.81
2022-10-08T05:34:41.455Z,64.81
2022-10-08T05:37:15.716Z,64.79
2022-10-08T05:39:46.011Z,64.82
2022-10-08T05:42:17.048Z,64.75
2022-10-08T05:44:53.961Z,64.88
2022-10-08T05:47:27.308Z,64.67
2022-10-08T05:50:04.934Z,64.90
2022-10-08T05:52:33.927Z,64.76
2022-10-08T05:55:06.058Z,64.90
2022-10-08T05:57:34.726Z,64.93
2022-10-08T06:00:09.666Z,65.00
2022-10-08T06:02:41.369Z,65.08
2022-10-08T06:05:12.922Z,65.01
2022-10-08T06:07:44.306Z,65.00
2022-10-08T06:10:13.016Z,64.90
2022-10-08T06:12:41.652Z,63.96
2022-10-08T06:15:11.014Z,63.05
2022-10-08T06:17:41.329Z,62.35
2022-10-08T06:20:11.923Z,61.59
2022-10-08T06:23:32.278Z,61.06
2022-10-08T06:26:03.548Z,60.78
2022-10-08T06:28:38.950Z,60.58
2022-10-08T06:31:09.034Z,60.66
2022-10-08T06:33:39.201Z,60.05
2022-10-08T06:36:21.170Z,59.62
2022-10-08T06:38:55.526Z,58.93
2022-10-08T06:41:25.687Z,58.43
2022-10-08T06:43:57.313Z,57.76
2022-10-08T06:46:26.215Z,57.00
2022-10-08T06:48:55.028Z,56.83
2022-10-08T06:51:23.857Z,56.25
2022-10-08T06:53:55.394Z,55.93
2022-10-08T06:56:27.070Z,55.88
2022-10-08T06:58:56.638Z,55.99
2022-10-08T07:01:43.474Z,56.00
2022-10-08T07:18:26.559Z,54.52
2022-10-08T07:21:02.563Z,53.49
2022-10-08T07:23:36.680Z,53.01
2022-10-08T07:26:18.615Z,52.84
2022-10-08T07:28:55.382Z,52.57
2022-10-08T07:31:32.962Z,52.55
2022-10-08T07:34:06.626Z,53.55
2022-10-08T07:36:36.909Z,54.83
2022-10-08T07:52:44.600Z,57.27
2022-10-08T07:55:13.650Z,57.42
2022-10-08T07:57:42.467Z,57.29
2022-10-08T08:00:12.716Z,57.33
2022-10-08T08:02:44.898Z,57.00
2022-10-08T08:05:16.334Z,55.76
2022-10-08T08:07:52.393Z,54.57
2022-10-08T08:10:23.905Z,53.32
2022-10-08T08:12:54.447Z,52.91
2022-10-08T08:15:24.638Z,53.43
2022-10-08T08:17:53.765Z,54.15
2022-10-08T08:20:24.169Z,54.33
2022-10-08T08:27:22.770Z,53.38
2022-10-08T08:29:54.427Z,53.22
2022-10-08T08:32:28.254Z,52.91
2022-10-08T08:34:58.254Z,52.82
2022-10-08T08:37:27.750Z,52.71
2022-10-08T08:39:57.240Z,52.17
2022-10-08T08:42:51.194Z,51.91
2022-10-08T08:45:47.579Z,51.80
2022-10-08T08:48:23.365Z,51.77
2022-10-08T08:50:56.719Z,51.06
2022-10-08T08:53:28.339Z,50.24
2022-10-08T08:56:02.638Z,50.00
2022-10-08T08:58:35.558Z,49.06
2022-10-08T09:01:10.337Z,49.28
2022-10-08T09:03:57.814Z,50.25
2022-10-08T09:06:31.866Z,49.75
2022-10-08T09:09:03.461Z,48.78
2022-10-08T09:11:33.249Z,48.28
2022-10-08T09:14:36.550Z,48.41
2022-10-08T09:17:16.472Z,48.56
2022-10-08T09:19:48.773Z,48.22
2022-10-08T09:22:26.426Z,48.09
2022-10-08T09:25:01.964Z,47.42
2022-10-08T09:27:58.498Z,47.33
2022-10-08T09:30:48.261Z,47.91
2022-10-08T09:33:32.575Z,47.37
2022-10-08T09:36:03.334Z,47.17
2022-10-08T09:38:37.757Z,46.86
2022-10-08T09:41:19.773Z,47.20
2022-10-08T09:44:09.892Z,47.03
2022-10-08T09:46:38.880Z,46.91
2022-10-08T09:49:29.233Z,47.02
2022-10-08T09:52:24.185Z,46.74
2022-10-08T09:55:10.499Z,46.67
2022-10-08T09:57:48.275Z,46.44
2022-10-08T10:00:26.620Z,45.70
2022-10-08T10:02:58.398Z,44.91
2022-10-08T10:05:30.689Z,44.59
2022-10-08T10:08:00.317Z,44.82
2022-10-08T10:10:33.392Z,44.41
2022-10-08T10:13:16.173Z,44.38
2022-10-08T10:15:54.051Z,43.55
2022-10-08T10:18:36.221Z,43.38
2022-10-08T10:21:16.178Z,43.47
2022-10-08T10:24:38.166Z,42.96
2022-10-08T10:27:17.227Z,42.14
2022-10-08T10:30:07.895Z,42.44
2022-10-08T10:32:51.493Z,43.19
2022-10-08T10:35:28.150Z,43.16
2022-10-08T10:38:06.010Z,42.91
2022-10-08T10:40:45.653Z,42.52
2022-10-08T10:43:46.791Z,41.89
2022-10-08T10:46:37.082Z,41.72
2022-10-08T10:49:27.439Z,41.65
2022-10-08T10:52:22.577Z,42.74
2022-10-08T10:55:09.674Z,42.64
2022-10-08T10:57:39.993Z,42.77
2022-10-08T11:00:20.997Z,43.14
2022-10-08T11:03:08.126Z,43.54
2022-10-08T11:05:41.366Z,43.94
2022-10-08T11:08:17.320Z,44.22
2022-10-08T11:11:05.041Z,43.93
2022-10-08T11:13:44.206Z,44.03
2022-10-08T11:16:31.649Z,44.11
2022-10-08T11:19:04.592Z,43.95
2022-10-08T11:21:43.623Z,44.02
2022-10-08T11:24:56.625Z,43.84
2022-10-08T11:27:31.530Z,43.85
2022-10-08T11:30:16.740Z,44.02
2022-10-08T11:32:52.145Z,44.10
2022-10-08T11:35:27.708Z,44.47
2022-10-08T11:37:58.285Z,44.75
2022-10-08T11:40:56.351Z,44.71
2022-10-08T11:43:52.573Z,44.98
2022-10-08T11:46:31.694Z,45.40
2022-10-08T11:49:02.753Z,45.56
2022-10-08T11:51:36.114Z,45.50
2022-10-08T11:54:08.007Z,45.76
2022-10-08T11:56:40.844Z,45.90
2022-10-08T11:59:29.180Z,46.03
2022-10-08T12:02:01.915Z,46.27
2022-10-08T12:04:36.604Z,46.33
2022-10-08T12:07:24.095Z,46.45
2022-10-08T12:10:05.424Z,46.70
2022-10-08T12:12:50.904Z,46.90
2022-10-08T12:15:25.937Z,47.03
2022-10-08T12:18:01.241Z,47.15
2022-10-08T12:20:33.549Z,47.28
2022-10-08T12:23:32.455Z,47.49
2022-10-08T12:26:02.331Z,47.65
2022-10-08T12:28:38.715Z,47.68
2022-10-08T12:31:18.484Z,47.81
2022-10-08T12:34:20.169Z,48.02
2022-10-08T12:36:55.450Z,48.17
2022-10-08T12:39:37.336Z,48.22
2022-10-08T12:42:33.049Z,48.18
2022-10-08T12:45:13.899Z,48.20
2022-10-08T12:47:56.949Z,48.35
2022-10-08T12:50:52.276Z,48.52
2022-10-08T12:53:21.326Z,48.87
2022-10-08T12:55:56.650Z,49.04
2022-10-08T12:58:30.290Z,49.31
2022-10-08T13:01:03.362Z,49.41
2022-10-08T13:03:32.335Z,49.67
2022-10-08T13:06:16.198Z,49.71
2022-10-08T13:08:45.564Z,50.02
2022-10-08T13:11:16.339Z,50.01
2022-10-08T13:13:51.488Z,50.08
2022-10-08T13:16:23.550Z,50.59
2022-10-08T13:19:00.716Z,50.56
2022-10-08T13:21:32.418Z,50.58
2022-10-08T13:24:52.904Z,50.75
2022-10-08T13:27:23.399Z,50.87
2022-10-08T13:29:53.968Z,51.23
2022-10-08T13:32:26.295Z,51.21
2022-10-08T13:35:00.580Z,51.30
2022-10-08T13:37:36.613Z,51.22
2022-10-08T13:40:13.105Z,51.46
2022-10-08T13:42:48.833Z,51.68
2022-10-08T13:45:20.967Z,51.86
2022-10-08T13:47:51.729Z,52.08
2022-10-08T13:50:22.953Z,52.08
2022-10-08T13:52:55.107Z,52.16
2022-10-08T13:55:30.057Z,52.27
2022-10-08T13:58:02.377Z,52.48
2022-10-08T14:00:34.040Z,52.64
2022-10-08T14:03:05.389Z,52.79
2022-10-08T14:05:41.755Z,52.82
2022-10-08T14:08:18.396Z,52.91
2022-10-08T14:10:51.196Z,53.00
2022-10-08T14:13:20.308Z,52.90
2022-10-08T14:15:50.796Z,53.14
2022-10-08T14:18:21.573Z,53.06
2022-10-08T14:20:53.838Z,53.30
2022-10-08T14:23:23.531Z,53.37
2022-10-08T14:25:54.280Z,53.41
2022-10-08T14:28:24.536Z,53.48
2022-10-08T14:30:54.927Z,53.57
2022-10-08T14:33:24.873Z,54.07
2022-10-08T14:35:56.072Z,54.01
2022-10-08T14:38:26.612Z,54.17
2022-10-08T14:40:55.227Z,54.23
2022-10-08T14:43:27.575Z,54.31
2022-10-08T14:46:00.198Z,54.17
2022-10-08T14:48:30.608Z,54.27
2022-10-08T14:51:01.698Z,54.39
2022-10-08T14:53:32.997Z,54.48
2022-10-08T14:56:13.170Z,54.58
2022-10-08T14:58:43.943Z,54.65
2022-10-08T15:01:15.803Z,54.66
2022-10-08T15:03:46.342Z,54.84
2022-10-08T15:06:18.741Z,55.01
2022-10-08T15:08:48.673Z,55.00
2022-10-08T15:11:20.521Z,55.10
2022-10-08T15:13:50.265Z,55.25
2022-10-08T15:16:19.343Z,55.37
2022-10-08T15:18:48.893Z,55.34
2022-10-08T15:21:19.296Z,55.40
2022-10-08T15:23:50.189Z,55.42
2022-10-08T15:26:19.899Z,55.48
2022-10-08T15:28:54.162Z,55.59
2022-10-08T15:31:26.114Z,55.61
2022-10-08T15:33:59.214Z,55.62
2022-10-08T15:36:32.433Z,55.63
2022-10-08T15:39:09.133Z,55.75
2022-10-08T15:41:42.462Z,55.72
2022-10-08T15:44:18.901Z,55.86
2022-10-08T15:46:49.452Z,55.85
2022-10-08T15:49:18.285Z,55.90
2022-10-08T15:51:49.403Z,55.95
2022-10-08T15:54:19.093Z,56.03
2022-10-08T15:56:49.415Z,56.10
2022-10-08T15:59:19.068Z,56.07
2022-10-08T16:01:48.653Z,56.12
2022-10-08T16:04:18.134Z,56.18
2022-10-08T16:06:48.491Z,56.26
2022-10-08T16:09:19.844Z,56.31
2022-10-08T16:11:49.649Z,56.29
2022-10-08T16:14:21.962Z,56.24
2022-10-08T16:16:51.174Z,56.22
2022-10-08T16:19:26.750Z,56.37
2022-10-08T16:21:58.662Z,56.28
2022-10-08T16:24:28.620Z,56.23
2022-10-08T16:26:58.731Z,56.29
2022-10-08T16:29:28.282Z,56.23
2022-10-08T16:31:57.763Z,56.26
2022-10-08T16:34:28.899Z,56.17
2022-10-08T16:37:00.957Z,56.21
2022-10-08T16:39:31.558Z,56.34
2022-10-08T16:42:01.483Z,56.34
2022-10-08T16:44:32.590Z,56.24
2022-10-08T16:47:02.448Z,56.39
2022-10-08T16:49:31.894Z,56.31
2022-10-08T16:52:05.393Z,56.27
2022-10-08T16:54:36.530Z,56.38
2022-10-08T16:57:06.042Z,56.32
2022-10-08T16:59:34.911Z,56.39
2022-10-08T17:02:05.079Z,56.39
2022-10-08T17:04:40.434Z,56.48
2022-10-08T17:07:09.423Z,56.52
2022-10-08T17:09:42.841Z,56.54
2022-10-08T17:12:19.641Z,56.58
2022-10-08T17:14:51.052Z,56.65
2022-10-08T17:17:21.960Z,56.72
2022-10-08T17:19:52.290Z,56.73
2022-10-08T17:22:35.190Z,56.89
2022-10-08T17:25:07.094Z,56.94
2022-10-08T17:27:44.282Z,57.01
2022-10-08T17:30:13.618Z,57.12
2022-10-08T17:32:47.507Z,57.15
2022-10-08T17:35:17.731Z,57.22
2022-10-08T17:37:54.701Z,57.22
2022-10-08T17:40:26.209Z,57.38
2022-10-08T17:42:54.862Z,57.36
2022-10-08T17:45:24.625Z,57.43
2022-10-08T17:47:53.858Z,57.45
2022-10-08T17:50:24.431Z,57.54
2022-10-08T17:52:59.093Z,57.62
2022-10-08T17:55:29.881Z,57.56
2022-10-08T17:58:00.412Z,57.69
2022-10-08T18:00:30.250Z,57.65
2022-10-08T18:03:00.310Z,57.88
2022-10-08T18:05:30.685Z,57.99
2022-10-08T18:08:01.254Z,58.03
2022-10-08T18:10:32.055Z,58.03
2022-10-08T18:13:02.494Z,58.05
2022-10-08T18:15:37.306Z,58.13
2022-10-08T18:18:08.539Z,58.24
2022-10-08T18:20:38.530Z,58.31
2022-10-08T18:23:09.763Z,58.54
2022-10-08T18:25:40.982Z,58.39
2022-10-08T18:28:11.578Z,58.53
2022-10-08T18:30:42.202Z,58.55
2022-10-08T18:33:12.483Z,58.68
2022-10-08T18:35:41.733Z,58.70
2022-10-08T18:38:12.452Z,58.73
2022-10-08T18:40:41.344Z,58.92
2022-10-08T18:43:10.600Z,58.92
2022-10-08T18:45:42.372Z,59.12
2022-10-08T18:48:12.302Z,59.08
2022-10-08T18:50:42.072Z,59.23
2022-10-08T18:53:19.514Z,59.28
2022-10-08T18:55:51.764Z,59.38
2022-10-08T18:58:26.361Z,59.51
2022-10-08T19:00:58.474Z,59.65
2022-10-08T19:03:28.182Z,59.75
2022-10-08T19:05:57.221Z,59.76
2022-10-08T19:08:26.556Z,60.07
2022-10-08T19:10:56.156Z,60.17
2022-10-08T19:13:25.230Z,60.40
2022-10-08T19:15:54.270Z,60.40
2022-10-08T19:18:25.086Z,60.42
2022-10-08T19:20:57.282Z,60.60
2022-10-08T19:28:11.936Z,60.85
2022-10-08T19:30:42.936Z,60.79
2022-10-08T19:33:18.082Z,60.78
2022-10-08T19:35:50.432Z,61.13
2022-10-08T19:38:24.813Z,60.98
2022-10-08T19:40:54.211Z,61.26
2022-10-08T19:43:24.502Z,61.25
2022-10-08T19:45:55.399Z,61.21
2022-10-08T19:48:27.382Z,61.45
2022-10-08T19:50:58.532Z,61.30
2022-10-08T19:53:31.031Z,61.23
2022-10-08T19:56:10.251Z,61.39
2022-10-08T19:58:46.254Z,61.17
2022-10-08T20:01:23.915Z,61.54
2022-10-08T20:03:55.562Z,61.33
2022-10-08T20:06:27.517Z,61.31
2022-10-08T20:09:01.171Z,61.52
2022-10-08T20:11:32.079Z,61.40
2022-10-08T20:14:01.865Z,61.56
2022-10-08T20:16:37.118Z,61.56
2022-10-08T20:19:08.950Z,61.88
2022-10-08T20:21:38.964Z,61.80
2022-10-08T20:24:12.939Z,61.89
2022-10-08T20:26:48.044Z,61.84
2022-10-08T20:29:20.263Z,61.90
2022-10-08T20:31:54.499Z,61.94
2022-10-08T20:34:31.626Z,62.03
2022-10-08T20:37:02.803Z,61.93
2022-10-08T20:39:35.089Z,62.17
2022-10-08T20:42:04.511Z,62.22
2022-10-08T20:44:33.056Z,62.27
2022-10-08T20:47:05.485Z,62.34
2022-10-08T20:49:36.490Z,62.41
2022-10-08T20:52:07.294Z,62.44
2022-10-08T20:54:36.709Z,62.42
2022-10-08T20:57:15.811Z,62.48
2022-10-08T20:59:45.315Z,62.45
2022-10-08T21:02:19.913Z,62.54
2022-10-08T21:04:51.235Z,62.58
2022-10-08T21:07:21.498Z,62.68
2022-10-08T21:09:52.915Z,62.83
2022-10-08T21:12:23.112Z,62.93
2022-10-08T21:14:52.192Z,62.90
2022-10-08T21:17:23.846Z,63.01
2022-10-08T21:19:52.505Z,63.10
2022-10-08T21:22:25.032Z,63.13
2022-10-08T21:24:57.362Z,63.21
2022-10-08T21:27:27.884Z,63.34
2022-10-08T21:29:58.789Z,63.34
2022-10-08T21:32:29.799Z,63.43
2022-10-08T21:35:00.579Z,63.54
2022-10-08T21:37:30.780Z,63.60
2022-10-08T21:39:59.487Z,63.61
2022-10-08T21:42:29.326Z,63.58
2022-10-08T21:44:59.357Z,63.59
2022-10-08T21:47:29.227Z,63.71
2022-10-08T21:49:58.946Z,63.90
2022-10-08T21:52:32.451Z,63.77
2022-10-08T21:55:01.574Z,64.02
2022-10-08T21:57:32.748Z,64.15
2022-10-08T22:00:05.167Z,64.46
2022-10-08T22:02:45.253Z,64.61
2022-10-08T22:05:15.292Z,64.53
2022-10-08T22:07:45.972Z,64.93
2022-10-08T22:10:16.175Z,64.92
2022-10-08T22:12:45.264Z,64.84
2022-10-08T22:15:17.902Z,64.93
2022-10-08T22:17:47.945Z,65.29
2022-10-08T22:20:18.231Z,65.10
2022-10-08T22:22:48.725Z,65.14
2022-10-08T22:25:17.837Z,65.17
2022-10-08T22:27:46.926Z,65.19
2022-10-08T22:30:16.474Z,65.13
2022-10-08T22:32:45.616Z,65.25
2022-10-08T22:35:15.383Z,65.33
2022-10-08T22:37:45.672Z,65.09
2022-10-08T22:40:14.998Z,65.20
2022-10-08T22:42:46.136Z,65.20
2022-10-08T22:45:17.960Z,65.15
2022-10-08T22:47:48.764Z,65.22
2022-10-08T22:50:18.951Z,65.57
2022-10-08T22:52:50.561Z,65.31
2022-10-08T22:55:22.648Z,65.41
2022-10-08T22:57:53.474Z,65.45
2022-10-08T23:00:23.959Z,65.57
2022-10-08T23:02:52.990Z,65.60
2022-10-08T23:05:21.966Z,65.86
2022-10-08T23:07:56.908Z,65.45
2022-10-08T23:10:26.738Z,65.78
2022-10-08T23:12:57.081Z,65.68
2022-10-08T23:15:27.448Z,65.85
2022-10-08T23:17:58.173Z,65.91
2022-10-08T23:20:26.923Z,65.72
2022-10-08T23:23:00.547Z,65.82
2022-10-08T23:25:30.202Z,65.90
2022-10-08T23:27:59.450Z,65.86
2022-10-08T23:30:42.538Z,65.90
2022-10-08T23:33:13.750Z,66.16
2022-10-08T23:35:44.723Z,66.38
2022-10-08T23:38:16.637Z,66.46
2022-10-08T23:40:46.542Z,66.55
2022-10-08T23:43:18.443Z,66.55
2022-10-08T23:45:47.833Z,66.31
2022-10-08T23:48:17.992Z,66.45
2022-10-08T23:50:51.259Z,66.69
2022-10-08T23:53:21.684Z,66.77
2022-10-08T23:55:51.809Z,66.75
2022-10-08T23:58:22.989Z,66.55
